Time;durP1;ratioP1;P1;durP2;ratioP2;P2;SDS_P1;SDS_P2;PMS_P1;PMS_P2;Temp;Humidity;BMP_temperature;BMP_pressure;BME280_temperature;BME280_humidity;BME280_pressure;Samples;Min_cycle;Max_cycle;Signal;HPM_P1;HPM_P2
2023/11/03 00:01:07;;;;;;;1.52;1.05;;;;;;;14.80;67.18;97487.44;5046046;27;101459;-74
2023/11/03 00:03:32;;;;;;;1.90;1.00;;;;;;;14.73;66.83;97452.06;5071414;27;97473;-74
2023/11/03 00:05:58;;;;;;;2.83;1.42;;;;;;;14.88;66.84;97491.00;5062117;27;96687;-73
2023/11/03 00:08:24;;;;;;;2.80;1.10;;;;;;;14.90;66.99;97489.06;5032238;27;96977;-74
2023/11/03 00:10:50;;;;;;;5.05;1.08;;;;;;;14.96;66.68;97479.72;5048320;27;97469;-73
2023/11/03 00:13:16;;;;;;;2.53;1.05;;;;;;;14.61;66.90;97411.84;5047598;27;100750;-73
2023/11/03 00:15:42;;;;;;;3.40;1.13;;;;;;;14.83;66.72;97442.25;5053248;27;97113;-73
2023/11/03 00:18:07;;;;;;;2.45;1.05;;;;;;;14.65;66.63;97395.53;5052403;27;96842;-73
2023/11/03 00:20:33;;;;;;;3.38;1.20;;;;;;;14.85;66.53;97419.19;5041324;27;101630;-73
2023/11/03 00:22:59;;;;;;;1.35;0.93;;;;;;;14.69;66.52;97389.00;5057462;27;98018;-73
2023/11/03 00:25:25;;;;;;;2.05;0.95;;;;;;;14.77;66.24;97412.00;5040088;27;97602;-74
2023/11/03 00:27:52;;;;;;;3.42;0.80;;;;;;;14.77;66.47;97401.44;5038701;27;97354;-74
2023/11/03 00:30:18;;;;;;;1.02;0.90;;;;;;;14.82;66.44;97383.34;5059772;27;98053;-74
2023/11/03 00:32:44;;;;;;;2.53;1.67;;;;;;;14.74;66.69;97364.75;5042142;27;101289;-73
2023/11/03 00:35:11;;;;;;;2.47;1.00;;;;;;;14.67;66.47;97361.06;5061223;27;96732;-73
2023/11/03 00:37:38;;;;;;;2.40;1.33;;;;;;;14.65;66.35;97340.09;5032308;27;97022;-73
2023/11/03 00:40:05;;;;;;;1.42;1.00;;;;;;;14.55;66.46;97328.78;5042802;27;101708;-73
2023/11/03 00:42:30;;;;;;;1.50;1.30;;;;;;;14.49;66.21;97311.72;5034252;27;97388;-73
2023/11/03 00:44:57;;;;;;;2.17;1.00;;;;;;;14.68;66.30;97338.97;5063182;27;96766;-74
2023/11/03 00:47:23;;;;;;;1.05;0.80;;;;;;;14.71;65.82;97346.59;5050061;27;98111;-73
2023/11/03 00:49:49;;;;;;;1.45;1.00;;;;;;;14.81;65.96;97357.09;5046214;27;101185;-73
2023/11/03 00:52:14;;;;;;;1.85;1.10;;;;;;;14.59;65.59;97332.78;5054796;27;101359;-73
2023/11/03 00:54:40;;;;;;;1.92;0.77;;;;;;;14.74;65.48;97363.94;5025694;27;97181;-73
2023/11/03 00:57:08;;;;;;;3.25;0.63;;;;;;;14.82;65.35;97370.13;5059824;27;96861;-74
2023/11/03 00:59:34;;;;;;;1.27;0.85;;;;;;;14.88;65.27;97387.19;5055768;27;97938;-74
2023/11/03 01:01:59;;;;;;;3.38;1.35;;;;;;;14.96;65.00;97367.97;5038480;27;100872;-73
2023/11/03 01:04:25;;;;;;;1.08;0.90;;;;;;;14.89;64.91;97362.44;5041486;27;97347;-73
2023/11/03 01:06:50;;;;;;;3.60;0.95;;;;;;;14.93;64.76;97377.84;5035417;27;97509;-73
2023/11/03 01:09:17;;;;;;;2.72;1.13;;;;;;;14.85;65.20;97382.22;5052793;27;97928;-74
2023/11/03 01:11:42;;;;;;;2.25;1.13;;;;;;;14.95;65.04;97388.22;5041980;27;97450;-73
2023/11/03 01:14:09;;;;;;;2.20;1.77;;;;;;;14.65;65.18;97331.34;5052923;27;98221;-74
2023/11/03 01:16:36;;;;;;;2.55;1.10;;;;;;;14.94;65.21;97397.97;5049035;27;96882;-74
2023/11/03 01:19:04;;;;;;;2.20;0.88;;;;;;;14.86;65.25;97382.03;5034125;27;101327;-73
2023/11/03 01:21:31;;;;;;;7.63;0.80;;;;;;;14.84;65.41;97384.03;5063911;27;97944;-74
2023/11/03 01:23:56;;;;;;;1.10;0.80;;;;;;;15.00;65.52;97377.22;5055186;27;96871;-73
2023/11/03 01:26:25;;;;;;;4.05;1.13;;;;;;;15.08;65.57;97395.78;5032483;27;97021;-73
2023/11/03 01:28:53;;;;;;;1.45;0.80;;;;;;;14.91;65.72;97381.59;5073151;27;98451;-73
2023/11/03 01:31:19;;;;;;;6.05;1.00;;;;;;;14.91;66.10;97379.78;5032240;27;101359;-74
2023/11/03 01:33:47;;;;;;;2.58;0.80;;;;;;;14.83;66.35;97376.25;5051032;27;96898;-74
2023/11/03 01:36:13;;;;;;;2.30;0.90;;;;;;;14.81;65.76;97375.59;5059827;27;96899;-74
2023/11/03 01:38:41;;;;;;;1.35;0.80;;;;;;;14.68;66.63;97353.00;5060188;27;97565;-74
2023/11/03 01:41:07;;;;;;;2.33;0.85;;;;;;;14.75;67.60;97390.22;5042598;27;98144;-73
2023/11/03 01:43:35;;;;;;;6.07;0.80;;;;;;;14.66;68.21;97391.06;5049578;27;97411;-74
2023/11/03 01:46:02;;;;;;;5.28;1.17;;;;;;;14.75;68.70;97398.13;5063071;27;97194;-73
2023/11/03 01:48:33;;;;;;;1.52;0.80;;;;;;;14.66;69.35;97396.34;5034491;27;98103;-74
2023/11/03 01:51:03;;;;;;;1.35;0.90;;;;;;;14.52;69.60;97373.97;5044679;27;99367;-73
2023/11/03 01:53:31;;;;;;;2.08;0.93;;;;;;;14.53;70.04;97382.69;5060975;27;96899;-73
2023/11/03 01:55:58;;;;;;;1.33;0.70;;;;;;;14.63;70.44;97399.28;5054453;27;97333;-73
2023/11/03 01:58:24;;;;;;;1.83;0.82;;;;;;;14.45;69.95;97375.47;5046994;27;101279;-74
2023/11/03 02:00:50;;;;;;;1.10;0.90;;;;;;;14.52;70.23;97383.69;5052485;27;101616;-73
2023/11/03 02:03:16;;;;;;;1.88;1.02;;;;;;;14.73;70.42;97415.91;5049402;27;98813;-73
2023/11/03 02:05:42;;;;;;;3.53;0.60;;;;;;;14.62;71.02;97392.38;5050528;27;97508;-74
2023/11/03 02:08:09;;;;;;;2.47;0.93;;;;;;;14.50;70.71;97368.78;5061229;27;98071;-73
2023/11/03 02:10:35;;;;;;;1.17;0.90;;;;;;;14.43;70.83;97348.44;5040140;27;101315;-74
2023/11/03 02:13:01;;;;;;;1.52;0.65;;;;;;;14.69;71.08;97399.56;5057041;27;97153;-74
2023/11/03 02:15:26;;;;;;;1.85;0.88;;;;;;;14.46;70.97;97369.25;5036749;27;97555;-73
2023/11/03 02:17:52;;;;;;;4.03;1.02;;;;;;;14.56;71.72;97385.88;5065019;27;98257;-73
2023/11/03 02:20:17;;;;;;;4.25;0.95;;;;;;;14.75;71.10;97390.22;5041837;27;101624;-73
2023/11/03 02:22:43;;;;;;;2.47;1.30;;;;;;;14.77;71.29;97398.78;5039460;27;96910;-74
2023/11/03 02:25:08;;;;;;;8.93;2.30;;;;;;;14.79;71.78;97386.28;5058525;27;97087;-74
2023/11/03 02:27:34;;;;;;;5.20;2.35;;;;;;;14.87;71.71;97393.47;5058758;27;97527;-74
2023/11/03 02:30:00;;;;;;;10.23;3.30;;;;;;;14.49;72.37;97353.94;5035891;27;97474;-73
2023/11/03 02:32:26;;;;;;;8.98;2.50;;;;;;;14.49;73.07;97374.22;5048185;27;97276;-73
2023/11/03 02:34:52;;;;;;;8.10;2.60;;;;;;;14.40;73.70;97377.75;5046612;27;98425;-73
2023/11/03 02:37:17;;;;;;;5.53;2.33;;;;;;;14.32;73.82;97378.47;5076588;27;98805;-73
2023/11/03 02:39:47;;;;;;;6.00;2.90;;;;;;;14.31;74.28;97370.69;5039142;27;98460;-73
2023/11/03 02:42:16;;;;;;;6.57;2.40;;;;;;;14.29;74.76;97357.66;5052985;27;96701;-73
2023/11/03 02:44:42;;;;;;;12.77;3.25;;;;;;;14.19;74.23;97320.78;5045176;27;97111;-74
2023/11/03 02:47:08;;;;;;;4.95;2.70;;;;;;;14.44;74.22;97350.09;5054728;27;101261;-73
2023/11/03 02:49:33;;;;;;;7.10;2.38;;;;;;;14.58;73.97;97348.78;5040702;27;100759;-73
2023/11/03 02:51:59;;;;;;;5.32;2.17;;;;;;;14.63;73.85;97347.34;5068408;27;96683;-73
2023/11/03 02:54:24;;;;;;;3.88;1.40;;;;;;;14.75;73.27;97337.41;5037984;27;97045;-73
2023/11/03 02:56:51;;;;;;;2.25;1.50;;;;;;;14.74;73.25;97334.91;5055676;27;98711;-73
2023/11/03 02:59:17;;;;;;;1.20;1.10;;;;;;;14.82;72.85;97332.34;5053724;27;97889;-73
2023/11/03 03:01:42;;;;;;;1.27;1.00;;;;;;;14.74;73.14;97333.09;5048654;27;96805;-74
2023/11/03 03:04:08;;;;;;;1.60;0.82;;;;;;;14.57;73.06;97300.41;5026103;27;96735;-73
2023/11/03 03:06:35;;;;;;;1.85;1.10;;;;;;;14.73;73.59;97335.88;5064957;27;101379;-73
2023/11/03 03:09:01;;;;;;;1.77;0.85;;;;;;;14.74;73.26;97330.44;5040685;27;98385;-74
2023/11/03 03:11:27;;;;;;;0.88;0.80;;;;;;;14.64;73.79;97332.34;5030282;27;96914;-73
2023/11/03 03:13:52;;;;;;;4.22;1.20;;;;;;;14.65;73.78;97326.06;5065941;27;97672;-73
2023/11/03 03:16:21;;;;;;;1.27;0.93;;;;;;;14.58;73.78;97325.84;5064796;27;101553;-73
2023/11/03 03:18:47;;;;;;;3.78;0.80;;;;;;;14.64;74.13;97327.06;5045323;27;101152;-73
2023/11/03 03:21:16;;;;;;;4.20;0.95;;;;;;;14.35;74.07;97291.13;5069516;27;97253;-73
2023/11/03 03:23:41;;;;;;;2.00;0.90;;;;;;;14.63;73.99;97334.16;5066798;27;96793;-74
2023/11/03 03:26:08;;;;;;;2.17;1.40;;;;;;;14.49;74.74;97345.19;5058172;27;98142;-74
2023/11/03 03:28:33;;;;;;;2.05;0.80;;;;;;;14.38;74.90;97333.03;5035192;27;101508;-73
2023/11/03 03:30:59;;;;;;;7.65;0.93;;;;;;;14.39;74.77;97352.31;5044608;27;97152;-73
2023/11/03 03:33:25;;;;;;;2.35;1.30;;;;;;;14.30;75.19;97359.31;5071828;27;97191;-73
2023/11/03 03:35:51;;;;;;;2.03;1.05;;;;;;;14.24;75.19;97344.91;5049685;27;100645;-73
2023/11/03 03:38:16;;;;;;;2.65;1.10;;;;;;;14.33;75.33;97348.47;5051837;27;97310;-74
2023/11/03 03:40:42;;;;;;;1.50;0.98;;;;;;;14.26;75.25;97350.06;5049651;27;96790;-74
2023/11/03 03:43:08;;;;;;;1.83;1.05;;;;;;;14.27;75.69;97346.41;5042081;27;97003;-73
2023/11/03 03:45:33;;;;;;;2.30;1.50;;;;;;;14.32;75.26;97341.53;5047699;27;101175;-73
2023/11/03 03:47:59;;;;;;;1.85;1.15;;;;;;;14.37;75.32;97339.28;5032440;27;101427;-73
2023/11/03 03:50:24;;;;;;;1.80;1.25;;;;;;;14.36;75.18;97350.81;5059287;27;96984;-73
2023/11/03 03:52:50;;;;;;;1.92;1.20;;;;;;;14.41;75.26;97348.56;5051965;27;96826;-73
2023/11/03 03:55:15;;;;;;;2.05;0.88;;;;;;;14.17;75.09;97319.28;5057143;27;97893;-73
2023/11/03 03:57:41;;;;;;;1.77;1.00;;;;;;;14.12;75.33;97313.63;5056388;27;98201;-73
2023/11/03 04:00:07;;;;;;;2.33;1.27;;;;;;;14.42;75.26;97349.38;5060286;27;97083;-73
2023/11/03 04:02:33;;;;;;;7.95;1.58;;;;;;;14.54;74.65;97339.47;5061864;27;97537;-73
2023/11/03 04:04:59;;;;;;;2.53;1.00;;;;;;;14.36;74.55;97316.50;5050903;27;101188;-73
2023/11/03 04:07:24;;;;;;;2.72;1.23;;;;;;;14.25;74.18;97285.06;5040429;27;101544;-73
2023/11/03 04:09:50;;;;;;;2.95;1.55;;;;;;;14.68;74.29;97363.56;5053761;27;96700;-73
2023/11/03 04:12:16;;;;;;;1.98;0.98;;;;;;;14.72;74.08;97361.47;5053014;27;96873;-74
2023/11/03 04:14:41;;;;;;;4.88;1.20;;;;;;;14.69;74.21;97357.31;5065116;27;97643;-73
2023/11/03 04:17:07;;;;;;;1.50;0.98;;;;;;;14.59;73.91;97332.78;5050806;27;100007;-73
2023/11/03 04:19:32;;;;;;;4.45;1.15;;;;;;;14.84;73.42;97368.19;5064249;27;96821;-73
2023/11/03 04:21:58;;;;;;;1.50;1.13;;;;;;;14.68;73.76;97331.88;5062372;27;96796;-73
2023/11/03 04:24:24;;;;;;;1.63;1.30;;;;;;;14.84;73.36;97352.34;5067984;27;97454;-73
2023/11/03 04:26:49;;;;;;;7.10;1.90;;;;;;;14.88;73.43;97358.97;5071371;27;97829;-74
2023/11/03 04:29:17;;;;;;;1.60;1.20;;;;;;;14.87;73.16;97359.13;5070188;27;96798;-73
2023/11/03 04:31:42;;;;;;;2.17;1.25;;;;;;;14.83;73.10;97342.72;5062497;27;96999;-73
2023/11/03 04:34:08;;;;;;;2.30;1.00;;;;;;;14.85;73.17;97355.81;5063651;27;99564;-74
2023/11/03 04:36:33;;;;;;;2.85;1.50;;;;;;;14.88;72.85;97373.97;5059124;27;97496;-73
2023/11/03 04:38:59;;;;;;;3.25;0.80;;;;;;;14.98;72.77;97387.09;5048478;27;96816;-73
2023/11/03 04:41:24;;;;;;;0.98;0.65;;;;;;;14.96;71.52;97384.63;5060020;27;97146;-73
2023/11/03 04:43:50;;;;;;;0.88;0.52;;;;;;;14.89;70.98;97371.22;5051391;27;97686;-73
2023/11/03 04:46:15;;;;;;;0.60;0.43;;;;;;;14.82;70.53;97370.13;5039523;27;97775;-73
2023/11/03 04:48:43;;;;;;;0.40;0.40;;;;;;;14.87;70.26;97391.66;5035305;27;97097;-73
2023/11/03 04:51:10;;;;;;;1.70;0.88;;;;;;;14.82;70.30;97385.16;5036181;27;97190;-74
2023/11/03 04:53:35;;;;;;;1.75;1.42;;;;;;;14.80;69.96;97398.50;5055689;27;98569;-74
2023/11/03 04:56:01;;;;;;;1.00;0.50;;;;;;;14.78;70.10;97402.28;5056082;27;97141;-73
2023/11/03 04:58:27;;;;;;;1.80;0.90;;;;;;;14.74;70.05;97407.00;5033694;27;97031;-73
2023/11/03 05:00:53;;;;;;;0.75;0.70;;;;;;;14.61;69.96;97380.16;5057702;27;97247;-74
2023/11/03 05:03:19;;;;;;;0.60;0.60;;;;;;;14.71;70.04;97397.56;5032099;27;101664;-74
2023/11/03 05:05:45;;;;;;;0.65;0.47;;;;;;;14.70;70.30;97406.47;5049854;27;101458;-74
2023/11/03 05:08:11;;;;;;;1.23;0.80;;;;;;;14.69;70.07;97410.13;5047209;27;96767;-73
2023/11/03 05:10:37;;;;;;;1.13;0.70;;;;;;;14.71;70.32;97409.94;5035024;27;96905;-74
2023/11/03 05:13:04;;;;;;;1.35;0.80;;;;;;;14.65;70.38;97411.38;5046245;27;97556;-74
2023/11/03 05:15:30;;;;;;;1.05;0.80;;;;;;;14.66;70.23;97397.22;5059383;27;97368;-73
2023/11/03 05:17:58;;;;;;;1.50;0.70;;;;;;;14.68;70.47;97403.16;5049722;27;97012;-73
2023/11/03 05:20:24;;;;;;;0.88;0.68;;;;;;;14.43;70.61;97375.66;5050398;27;96874;-73
2023/11/03 05:22:49;;;;;;;2.17;1.00;;;;;;;14.62;70.48;97402.94;5054999;27;97382;-73
2023/11/03 05:25:15;;;;;;;1.27;1.00;;;;;;;14.50;70.55;97379.34;5041343;27;101487;-73
2023/11/03 05:27:41;;;;;;;0.98;0.90;;;;;;;14.60;70.59;97383.75;5060530;27;96767;-74
2023/11/03 05:30:08;;;;;;;2.20;0.90;;;;;;;14.39;70.60;97352.31;5063680;27;96944;-73
2023/11/03 05:32:34;;;;;;;1.73;1.10;;;;;;;14.55;70.47;97386.84;5054535;27;101649;-73
2023/11/03 05:35:00;;;;;;;1.38;1.08;;;;;;;14.47;70.74;97373.53;5058066;27;97321;-73
2023/11/03 05:37:29;;;;;;;1.17;1.05;;;;;;;14.54;70.52;97376.44;5056926;27;97254;-73
2023/11/03 05:39:54;;;;;;;1.75;1.02;;;;;;;14.20;70.93;97306.63;5063348;27;97350;-73
2023/11/03 05:42:20;;;;;;;2.42;1.38;;;;;;;14.44;70.32;97334.25;5036496;27;100865;-73
2023/11/03 05:44:46;;;;;;;1.90;1.00;;;;;;;14.42;71.04;97313.28;5054774;27;97236;-73
2023/11/03 05:47:12;;;;;;;4.50;1.10;;;;;;;14.42;70.80;97293.97;5056726;27;96723;-73
2023/11/03 05:49:38;;;;;;;2.38;1.05;;;;;;;14.45;70.58;97301.59;5053652;27;96993;-73
2023/11/03 05:52:03;;;;;;;4.00;1.05;;;;;;;14.35;70.56;97314.84;5056884;27;98042;-73
2023/11/03 05:54:29;;;;;;;4.20;1.13;;;;;;;14.35;70.51;97343.88;5058954;27;98752;-74
2023/11/03 05:56:55;;;;;;;2.08;1.48;;;;;;;14.37;70.64;97355.13;5057519;27;96766;-73
2023/11/03 05:59:21;;;;;;;1.85;1.23;;;;;;;14.42;70.72;97344.94;5055941;27;97397;-74
2023/11/03 06:01:47;;;;;;;2.13;1.20;;;;;;;14.44;70.18;97343.00;5031820;27;101893;-73
2023/11/03 06:04:13;;;;;;;1.63;1.10;;;;;;;14.41;70.33;97345.09;5062191;27;97412;-74
2023/11/03 06:06:39;;;;;;;2.15;0.95;;;;;;;14.43;70.42;97346.63;5067089;27;96722;-73
2023/11/03 06:09:05;;;;;;;3.47;1.17;;;;;;;14.42;70.51;97349.38;5046037;27;96901;-73
2023/11/03 06:11:30;;;;;;;2.58;1.02;;;;;;;14.41;70.46;97356.47;5056159;27;97427;-74
2023/11/03 06:13:56;;;;;;;2.17;1.30;;;;;;;14.25;70.26;97338.69;5063267;27;97291;-73
2023/11/03 06:16:21;;;;;;;2.90;1.20;;;;;;;14.46;70.40;97388.53;5053235;27;97196;-73
2023/11/03 06:18:47;;;;;;;2.45;1.20;;;;;;;14.43;70.78;97375.66;5055456;27;97267;-73
2023/11/03 06:21:13;;;;;;;2.75;1.55;;;;;;;14.25;70.19;97341.31;5051252;27;101599;-73
2023/11/03 06:23:39;;;;;;;3.88;2.50;;;;;;;14.40;70.38;97360.09;5026131;27;101610;-73
2023/11/03 06:26:05;;;;;;;5.93;3.47;;;;;;;14.46;70.41;97372.72;5069609;27;96795;-73
2023/11/03 06:28:31;;;;;;;3.95;1.85;;;;;;;14.40;70.83;97354.84;5053411;27;98500;-73
2023/11/03 06:30:57;;;;;;;3.47;1.65;;;;;;;14.25;70.58;97329.91;5049766;27;100174;-73
2023/11/03 06:33:23;;;;;;;2.22;1.63;;;;;;;14.26;70.56;97331.59;5069853;27;97875;-73
2023/11/03 06:35:50;;;;;;;2.17;1.50;;;;;;;14.42;70.76;97363.41;5054863;27;97140;-73
2023/11/03 06:38:16;;;;;;;1.73;1.20;;;;;;;14.46;70.66;97385.06;5062640;27;97088;-73
2023/11/03 06:40:41;;;;;;;3.97;1.80;;;;;;;14.49;70.68;97395.34;5052124;27;97474;-74
2023/11/03 06:43:07;;;;;;;2.72;1.52;;;;;;;14.47;70.82;97406.03;5039202;27;100888;-73
2023/11/03 06:45:33;;;;;;;1.38;1.27;;;;;;;14.48;70.78;97415.59;5059379;27;96810;-73
2023/11/03 06:47:59;;;;;;;2.90;1.55;;;;;;;14.50;70.04;97424.22;5046032;27;96974;-73
2023/11/03 06:50:25;;;;;;;4.88;1.50;;;;;;;14.50;70.35;97431.31;5061216;27;98087;-73
2023/11/03 06:52:51;;;;;;;2.22;1.98;;;;;;;14.51;70.39;97425.03;5052053;27;101267;-73
2023/11/03 06:55:17;;;;;;;1.85;1.27;;;;;;;14.55;70.64;97423.81;5063810;27;96879;-73
2023/11/03 06:57:43;;;;;;;7.75;1.92;;;;;;;14.45;70.48;97386.03;5054891;27;96979;-73
2023/11/03 07:00:12;;;;;;;2.72;1.42;;;;;;;14.65;70.63;97407.91;5055261;27;101482;-74
2023/11/03 07:02:38;;;;;;;8.70;1.92;;;;;;;14.69;70.45;97409.28;5060728;27;97281;-73
2023/11/03 07:05:04;;;;;;;4.35;1.83;;;;;;;14.65;70.77;97406.09;5049418;27;97093;-74
2023/11/03 07:07:30;;;;;;;2.40;1.65;;;;;;;14.73;70.49;97418.56;5067768;27;97755;-76
2023/11/03 07:09:55;;;;;;;3.15;1.88;;;;;;;14.58;70.55;97394.47;5034480;27;101072;-73
2023/11/03 07:12:21;;;;;;;2.95;1.80;;;;;;;14.72;70.87;97416.91;5067092;27;98385;-74
2023/11/03 07:14:47;;;;;;;6.30;2.42;;;;;;;14.66;70.68;97413.06;5062282;27;97187;-73
2023/11/03 07:17:13;;;;;;;2.78;1.85;;;;;;;14.66;70.81;97414.84;5065809;27;96901;-74
2023/11/03 07:19:39;;;;;;;3.88;2.10;;;;;;;14.57;71.05;97411.28;5041121;27;99014;-73
2023/11/03 07:22:05;;;;;;;4.18;2.30;;;;;;;14.51;70.93;97396.00;5046003;27;97944;-73
2023/11/03 07:24:30;;;;;;;7.63;2.53;;;;;;;14.66;71.21;97423.63;5061016;27;97433;-73
2023/11/03 07:26:56;;;;;;;6.63;2.78;;;;;;;14.62;71.02;97424.03;5048775;27;96889;-73
2023/11/03 07:29:22;;;;;;;5.13;2.30;;;;;;;14.64;70.67;97438.75;5038970;27;101321;-75
2023/11/03 07:31:47;;;;;;;8.40;3.13;;;;;;;14.64;70.87;97430.84;5049142;27;97336;-73
2023/11/03 07:34:13;;;;;;;5.80;2.42;;;;;;;14.65;70.80;97434.31;5047037;27;97251;-73
2023/11/03 07:36:39;;;;;;;4.22;2.17;;;;;;;14.66;70.54;97435.97;5052292;27;97107;-73
2023/11/03 07:39:06;;;;;;;3.22;2.15;;;;;;;14.62;70.56;97430.16;5032493;27;101077;-73
2023/11/03 07:41:35;;;;;;;3.83;2.05;;;;;;;14.68;70.45;97440.13;5059917;27;97871;-72
2023/11/03 07:44:01;;;;;;;3.70;1.75;;;;;;;14.64;70.39;97443.22;5052501;27;97294;-73
2023/11/03 07:46:30;;;;;;;2.70;1.85;;;;;;;14.51;70.30;97417.13;5040104;27;97355;-73
2023/11/03 07:49:04;;;;;;;4.22;1.70;;;;;;;14.66;70.21;97449.16;5036755;27;101557;-74
2023/11/03 07:51:30;;;;;;;2.85;1.70;;;;;;;14.59;70.40;97435.72;5044196;27;101417;-73
2023/11/03 07:53:56;;;;;;;4.18;2.13;;;;;;;14.60;70.40;97436.56;5068637;27;97510;-73
2023/11/03 07:56:22;;;;;;;4.07;1.48;;;;;;;14.64;70.33;97438.75;5028748;27;97197;-73
2023/11/03 07:58:48;;;;;;;4.22;1.88;;;;;;;14.61;70.30;97444.34;5040502;27;101061;-75
2023/11/03 08:01:14;;;;;;;3.00;1.80;;;;;;;14.47;70.57;97431.59;5043227;27;97910;-75
2023/11/03 08:03:40;;;;;;;3.78;1.73;;;;;;;14.61;70.43;97449.63;5046570;27;96824;-75
2023/11/03 08:06:06;;;;;;;5.38;2.05;;;;;;;14.61;70.83;97472.56;5045822;27;97366;-73
2023/11/03 08:08:32;;;;;;;3.92;2.45;;;;;;;14.48;70.91;97443.81;5059589;27;97891;-75
2023/11/03 08:10:57;;;;;;;5.38;1.77;;;;;;;14.58;70.98;97465.75;5060474;27;97396;-74
2023/11/03 08:13:27;;;;;;;6.53;1.70;;;;;;;14.38;70.83;97428.03;5056728;27;97980;-76
2023/11/03 08:15:52;;;;;;;8.45;1.70;;;;;;;14.62;70.95;97455.72;5046540;27;97498;-76
2023/11/03 08:18:18;;;;;;;2.97;1.65;;;;;;;14.43;70.76;97417.88;5047414;27;97466;-76
2023/11/03 08:20:44;;;;;;;3.50;1.80;;;;;;;14.64;70.41;97448.50;5057466;27;97417;-74
2023/11/03 08:23:09;;;;;;;3.92;2.35;;;;;;;14.59;70.51;97445.47;5029605;27;97374;-74
2023/11/03 08:25:35;;;;;;;3.97;1.88;;;;;;;14.64;70.67;97459.88;5031891;27;96973;-75
2023/11/03 08:28:01;;;;;;;8.80;1.65;;;;;;;14.62;70.98;97453.09;5030970;27;100944;-74
2023/11/03 08:30:26;;;;;;;4.68;1.95;;;;;;;14.63;70.47;97447.66;5022251;27;101494;-76
2023/11/03 08:32:53;;;;;;;2.47;1.85;;;;;;;14.59;70.00;97434.91;5046468;27;97199;-74
2023/11/03 08:35:22;;;;;;;3.53;1.75;;;;;;;14.53;70.01;97420.47;5023956;27;97450;-74
2023/11/03 08:37:48;;;;;;;4.40;2.72;;;;;;;14.57;70.28;97436.84;5036850;27;101516;-75
2023/11/03 08:40:16;;;;;;;5.18;2.22;;;;;;;14.44;70.22;97402.88;5060442;27;97350;-75
2023/11/03 08:42:46;;;;;;;3.72;1.80;;;;;;;14.39;70.03;97405.09;5024819;27;97007;-73
2023/11/03 08:45:15;;;;;;;2.97;1.65;;;;;;;14.41;69.88;97387.31;5058736;27;97454;-73
2023/11/03 08:47:41;;;;;;;4.10;2.10;;;;;;;14.46;69.90;97385.06;5048433;27;98075;-73
2023/11/03 08:50:08;;;;;;;4.40;2.15;;;;;;;14.51;69.92;97401.28;5067605;27;98044;-73
2023/11/03 08:52:35;;;;;;;3.95;2.67;;;;;;;14.42;69.91;97386.34;5041200;27;96768;-73
2023/11/03 08:55:06;;;;;;;4.40;2.65;;;;;;;14.43;70.22;97378.28;5066842;27;97947;-73
2023/11/03 08:57:33;;;;;;;5.03;2.70;;;;;;;14.64;70.27;97415.00;5065453;27;97394;-73
2023/11/03 08:59:59;;;;;;;7.43;1.80;;;;;;;14.61;70.04;97401.28;5048723;27;100687;-73
2023/11/03 09:02:24;;;;;;;3.60;1.75;;;;;;;14.54;69.92;97392.28;5066976;27;96836;-73
2023/11/03 09:04:50;;;;;;;3.00;1.48;;;;;;;14.45;69.72;97383.41;5061670;27;96844;-72
2023/11/03 09:07:15;;;;;;;2.17;1.08;;;;;;;14.42;69.98;97383.69;5050556;27;98000;-72
2023/11/03 09:09:41;;;;;;;3.17;1.75;;;;;;;14.61;69.93;97401.28;5060254;27;101444;-73
2023/11/03 09:12:06;;;;;;;2.25;1.63;;;;;;;14.53;69.83;97390.63;5067040;27;96811;-74
2023/11/03 09:14:32;;;;;;;2.58;1.42;;;;;;;14.60;69.76;97402.22;5053970;27;96875;-74
2023/11/03 09:16:58;;;;;;;2.35;1.77;;;;;;;14.46;69.50;97382.44;5061543;27;98467;-75
2023/11/03 09:19:23;;;;;;;3.63;1.88;;;;;;;14.57;69.63;97406.00;5056312;27;97428;-73
2023/11/03 09:21:49;;;;;;;2.75;1.45;;;;;;;14.56;69.90;97408.81;5057597;27;97270;-73
2023/11/03 09:24:14;;;;;;;1.98;1.70;;;;;;;14.57;69.88;97405.16;5059454;27;97440;-73
2023/11/03 09:26:40;;;;;;;5.00;1.65;;;;;;;14.57;69.58;97407.81;5058191;27;97436;-74
2023/11/03 09:29:05;;;;;;;2.67;1.63;;;;;;;14.55;69.61;97400.06;5063154;27;98941;-75
2023/11/03 09:31:31;;;;;;;2.38;1.65;;;;;;;14.54;69.74;97397.53;5056517;27;97185;-73
2023/11/03 09:33:57;;;;;;;5.93;2.17;;;;;;;14.40;69.78;97370.66;5059712;27;97265;-73
2023/11/03 09:36:22;;;;;;;3.63;1.65;;;;;;;14.48;69.85;97391.84;5032176;27;101780;-73
2023/11/03 09:38:48;;;;;;;3.38;2.13;;;;;;;14.34;69.76;97360.69;5063951;27;98954;-72
2023/11/03 09:41:15;;;;;;;2.45;1.40;;;;;;;14.40;69.80;97375.13;5049316;27;97767;-75
2023/11/03 09:43:42;;;;;;;3.00;1.75;;;;;;;14.54;69.84;97393.09;5046036;27;97295;-73
2023/11/03 09:46:08;;;;;;;2.88;2.10;;;;;;;14.22;69.88;97343.38;5056573;27;99635;-73
2023/11/03 09:48:33;;;;;;;6.53;2.08;;;;;;;14.55;69.90;97389.50;5050176;27;97529;-73
2023/11/03 09:51:01;;;;;;;3.22;1.60;;;;;;;14.44;69.86;97368.56;5051369;27;96817;-73
2023/11/03 09:53:29;;;;;;;3.72;1.98;;;;;;;14.20;69.60;97321.63;5047622;27;97399;-72
2023/11/03 09:55:56;;;;;;;3.78;1.70;;;;;;;14.44;69.51;97352.72;5047391;27;97598;-74
2023/11/03 09:58:21;;;;;;;2.90;1.83;;;;;;;14.54;69.83;97365.88;5041246;27;97342;-74
2023/11/03 10:00:48;;;;;;;4.22;2.13;;;;;;;14.56;69.68;97364.75;5055888;27;97343;-74
2023/11/03 10:03:14;;;;;;;4.05;2.42;;;;;;;14.55;69.59;97357.81;5048326;27;98095;-72
2023/11/03 10:05:39;;;;;;;3.60;1.85;;;;;;;14.56;69.40;97334.91;5016867;27;101426;-72
2023/11/03 10:08:07;;;;;;;5.22;1.77;;;;;;;14.56;69.31;97335.72;5043903;27;101566;-72
2023/11/03 10:10:35;;;;;;;4.05;2.10;;;;;;;14.55;69.57;97323.50;5044901;27;97277;-72
2023/11/03 10:13:04;;;;;;;2.42;1.85;;;;;;;14.51;69.38;97316.81;5048474;27;97299;-74
2023/11/03 10:15:29;;;;;;;2.88;1.80;;;;;;;14.53;69.56;97311.44;5059572;27;97487;-72
2023/11/03 10:17:56;;;;;;;2.58;1.50;;;;;;;14.40;69.25;97283.59;5066228;27;98166;-74
2023/11/03 10:20:23;;;;;;;4.25;1.90;;;;;;;14.55;69.27;97310.31;5060693;27;97225;-72
2023/11/03 10:22:49;;;;;;;2.28;1.60;;;;;;;14.56;69.41;97306.69;5045116;27;97009;-72
2023/11/03 10:25:15;;;;;;;2.28;1.55;;;;;;;14.33;69.47;97268.50;5047609;27;101592;-73
2023/11/03 10:27:41;;;;;;;5.95;2.08;;;;;;;14.54;69.41;97306.00;5055282;27;97630;-72
2023/11/03 10:30:07;;;;;;;2.75;1.50;;;;;;;14.33;69.42;97263.22;5057279;27;98126;-72
2023/11/03 10:32:33;;;;;;;2.55;2.03;;;;;;;14.48;69.48;97294.19;5048955;27;97564;-72
2023/11/03 10:35:03;;;;;;;4.35;2.00;;;;;;;14.48;69.43;97296.00;5060387;27;97658;-73
2023/11/03 10:37:29;;;;;;;4.38;2.47;;;;;;;14.48;69.75;97315.31;5041579;27;97442;-72
2023/11/03 10:39:55;;;;;;;3.90;2.28;;;;;;;14.46;69.66;97316.47;5048532;27;96814;-72
2023/11/03 10:42:24;;;;;;;2.78;2.20;;;;;;;14.41;69.37;97302.88;5053871;27;97381;-74
2023/11/03 10:44:59;;;;;;;7.53;2.95;;;;;;;14.40;69.42;97303.88;5063586;27;97688;-71
2023/11/03 10:47:31;;;;;;;5.32;2.25;;;;;;;14.36;69.47;97295.41;5032774;27;98738;-72
2023/11/03 10:50:05;;;;;;;10.55;2.33;;;;;;;14.31;69.39;97294.19;5047599;27;96929;-75
2023/11/03 10:53:19;;;;;;;4.28;2.35;;;;;;;14.34;69.72;97296.53;5039782;27;97721;-72
2023/11/03 10:56:02;;;;;;;3.58;2.30;;;;;;;14.31;69.68;97291.53;5000957;27;98082;-72
2023/11/03 10:58:28;;;;;;;3.65;2.42;;;;;;;14.30;69.73;97281.97;5027206;27;97682;-74
2023/11/03 11:01:20;;;;;;;3.08;2.40;;;;;;;14.22;69.89;97274.81;5060717;27;97533;-72
2023/11/03 11:04:06;;;;;;;7.13;2.72;;;;;;;14.29;70.12;97275.06;5040120;27;97652;-72
2023/11/03 11:06:39;;;;;;;4.80;2.75;;;;;;;14.33;70.04;97279.88;5034926;27;101239;-72
2023/11/03 11:09:17;;;;;;;4.63;3.17;;;;;;;14.18;69.98;97247.06;5043374;27;98028;-73
2023/11/03 11:11:47;;;;;;;6.32;3.00;;;;;;;14.06;70.03;97219.25;5044995;27;97382;-74
2023/11/03 11:14:26;;;;;;;6.45;3.38;;;;;;;14.32;70.05;97253.66;5027606;27;97361;-73
2023/11/03 11:16:54;;;;;;;4.13;2.70;;;;;;;14.12;70.20;97223.94;5036251;27;99782;-73
2023/11/03 11:19:52;;;;;;;7.13;4.00;;;;;;;14.43;70.18;97263.97;5057343;27;97447;-73
2023/11/03 11:22:19;;;;;;;8.10;2.53;;;;;;;14.33;69.83;97234.19;5032207;27;98774;-73
2023/11/03 11:24:48;;;;;;;3.65;2.67;;;;;;;14.35;69.85;97232.25;5054988;27;97083;-73
2023/11/03 11:27:17;;;;;;;9.25;2.72;;;;;;;14.38;70.23;97230.13;5036388;27;98824;-73
2023/11/03 11:29:43;;;;;;;5.45;2.85;;;;;;;14.45;70.22;97243.53;5036246;27;101198;-73